Time;durP1;ratioP1;P1;durP2;ratioP2;P2;SDS_P1;SDS_P2;PMS_P1;PMS_P2;Temp;Humidity;BMP_temperature;BMP_pressure;BME280_temperature;BME280_humidity;BME280_pressure;Samples;Min_cycle;Max_cycle;Signal;HPM_P1;HPM_P2
2023/07/26 03:55:44;;;;;;;6.28;3.87;;;;;;;17.69;100.00;99140.56;6551758;26;20353;-83
2023/07/26 03:58:48;;;;;;;7.10;4.22;;;;;;;17.78;100.00;99146.41;6586231;27;34442;-82
2023/07/26 04:01:50;;;;;;;5.35;4.18;;;;;;;17.92;100.00;99149.56;6606411;27;33600;-83
2023/07/26 04:04:53;;;;;;;4.60;3.90;;;;;;;18.02;100.00;99149.69;6596601;27;33719;-82
2023/07/26 04:07:56;;;;;;;7.32;4.60;;;;;;;18.08;100.00;99152.19;6586485;27;34413;-82
2023/07/26 04:11:02;;;;;;;5.78;4.20;;;;;;;18.11;100.00;99142.69;6586144;27;34271;-83
2023/07/26 04:14:05;;;;;;;5.30;3.90;;;;;;;18.16;100.00;99145.44;6605962;27;34448;-83
2023/07/26 04:17:08;;;;;;;3.95;3.42;;;;;;;18.20;100.00;99137.59;6568497;27;34352;-82
2023/07/26 04:20:11;;;;;;;4.85;3.70;;;;;;;18.24;100.00;99150.44;6568256;27;33393;-83
2023/07/26 04:23:14;;;;;;;3.62;2.92;;;;;;;18.33;100.00;99154.31;6586109;27;33220;-84
2023/07/26 04:26:16;;;;;;;4.40;3.25;;;;;;;18.32;100.00;99166.31;6586805;27;34387;-84
2023/07/26 04:29:19;;;;;;;3.95;2.78;;;;;;;18.34;100.00;99177.78;6586666;27;33607;-84
2023/07/26 04:32:22;;;;;;;2.35;2.08;;;;;;;18.39;100.00;99190.63;6586464;27;33492;-84
2023/07/26 04:35:25;;;;;;;3.33;2.08;;;;;;;18.41;100.00;99201.28;6568557;27;33282;-89
2023/07/26 04:38:28;;;;;;;1.98;1.80;;;;;;;18.47;100.00;99189.34;6589818;27;33666;-89
2023/07/26 04:41:30;;;;;;;2.00;1.80;;;;;;;18.46;100.00;99185.81;6586470;27;33681;-88
2023/07/26 04:44:33;;;;;;;1.80;1.60;;;;;;;18.43;100.00;99167.25;6586182;27;33492;-88
2023/07/26 04:47:36;;;;;;;2.28;1.40;;;;;;;18.41;100.00;99180.28;6568139;27;33517;-84
2023/07/26 04:50:39;;;;;;;2.28;1.80;;;;;;;18.56;100.00;99177.69;6585940;27;33784;-84
2023/07/26 04:53:41;;;;;;;2.80;1.40;;;;;;;18.55;100.00;99177.97;6605718;27;33338;-84
2023/07/26 04:56:44;;;;;;;2.28;1.23;;;;;;;18.59;100.00;99173.62;6558829;27;33649;-84
2023/07/26 04:59:47;;;;;;;3.95;1.60;;;;;;;18.50;100.00;99170.56;6577148;27;34316;-84
2023/07/26 05:02:50;;;;;;;1.70;1.60;;;;;;;18.44;100.00;99173.50;6583768;27;33556;-84
2023/07/26 05:05:53;;;;;;;3.03;1.60;;;;;;;18.51;100.00;99180.38;6580732;27;34688;-83
2023/07/26 05:08:56;;;;;;;3.80;1.55;;;;;;;18.65;100.00;99182.69;6563893;27;35020;-83
2023/07/26 05:11:59;;;;;;;2.90;1.80;;;;;;;18.78;100.00;99183.09;6559072;27;33565;-84
2023/07/26 05:15:02;;;;;;;2.70;1.75;;;;;;;18.89;100.00;99196.78;6576918;27;34329;-84
2023/07/26 05:18:05;;;;;;;1.98;1.48;;;;;;;18.97;100.00;99182.69;6576915;27;33558;-84
2023/07/26 05:21:08;;;;;;;1.85;1.27;;;;;;;19.16;100.00;99175.72;6576786;27;33306;-84
2023/07/26 05:24:11;;;;;;;2.30;1.58;;;;;;;19.16;100.00;99183.91;6558654;27;34214;-84
2023/07/26 05:27:13;;;;;;;2.22;1.48;;;;;;;19.17;100.00;99185.53;6558647;27;33830;-84
2023/07/26 05:30:19;;;;;;;3.17;1.25;;;;;;;19.24;100.00;99198.94;6576585;27;33645;-83
2023/07/26 05:33:25;;;;;;;1.20;1.10;;;;;;;19.15;100.00;99201.34;6542097;27;33559;-84
2023/07/26 05:36:28;;;;;;;1.92;1.60;;;;;;;19.03;100.00;99196.09;6577080;27;33711;-84
2023/07/26 05:39:32;;;;;;;2.65;1.00;;;;;;;19.06;100.00;99202.91;6559015;27;33533;-84
2023/07/26 05:42:36;;;;;;;4.53;1.65;;;;;;;18.99;100.00;99196.88;6559188;27;33517;-84
2023/07/26 05:45:41;;;;;;;4.20;1.48;;;;;;;19.04;100.00;99205.09;6571919;27;33366;-84
2023/07/26 05:48:44;;;;;;;2.90;1.40;;;;;;;19.11;100.00;99207.59;6589987;27;34139;-84
2023/07/26 05:51:50;;;;;;;17.10;2.35;;;;;;;18.96;100.00;99191.97;6559044;27;33521;-84
2023/07/26 05:54:53;;;;;;;2.87;1.23;;;;;;;19.05;100.00;99193.09;6577032;27;33685;-84
2023/07/26 05:57:55;;;;;;;0.90;0.88;;;;;;;18.96;100.00;99213.78;6578407;27;34730;-83
2023/07/26 06:00:59;;;;;;;6.15;1.90;;;;;;;18.84;100.00;99219.41;6541772;27;33689;-84
2023/07/26 06:04:03;;;;;;;2.03;1.55;;;;;;;18.94;100.00;99240.47;6579302;27;33648;-83
2023/07/26 06:07:06;;;;;;;2.17;1.50;;;;;;;18.97;100.00;99231.78;6572954;27;33929;-83
2023/07/26 06:10:09;;;;;;;1.67;1.15;;;;;;;18.94;100.00;99226.84;6592182;27;33562;-84
2023/07/26 06:13:12;;;;;;;1.98;1.42;;;;;;;19.06;100.00;99238.37;6558926;27;33140;-83
2023/07/26 06:16:15;;;;;;;2.28;1.50;;;;;;;18.91;100.00;99241.81;6573295;27;165492;-84
2023/07/26 06:19:18;;;;;;;1.60;1.27;;;;;;;18.78;100.00;99231.37;6578950;27;33629;-83
2023/07/26 06:22:21;;;;;;;16.10;3.40;;;;;;;18.69;100.00;99231.00;6561797;27;33537;-84
2023/07/26 06:25:24;;;;;;;3.53;1.77;;;;;;;18.62;100.00;99246.72;6581728;27;33964;-84
2023/07/26 06:28:28;;;;;;;1.97;1.30;;;;;;;18.63;100.00;99234.72;6560870;26;34007;-84
2023/07/26 06:31:30;;;;;;;24.25;3.42;;;;;;;18.74;100.00;99232.94;6568968;27;34437;-85
2023/07/26 06:34:34;;;;;;;2.97;1.52;;;;;;;18.72;100.00;99233.19;6587564;27;34327;-86
2023/07/26 06:37:37;;;;;;;1.90;1.45;;;;;;;18.70;100.00;99238.06;6604749;27;34584;-85
2023/07/26 06:40:39;;;;;;;11.10;3.35;;;;;;;18.74;100.00;99230.22;6587262;27;33762;-86
2023/07/26 06:43:42;;;;;;;8.27;2.58;;;;;;;18.95;100.00;99234.78;6586313;27;33727;-85
2023/07/26 06:46:45;;;;;;;1.62;1.30;;;;;;;19.25;100.00;99242.34;6606614;27;33695;-85
2023/07/26 06:49:48;;;;;;;1.62;1.42;;;;;;;19.38;100.00;99249.25;6606944;27;34281;-85
2023/07/26 06:52:51;;;;;;;10.82;3.08;;;;;;;19.41;100.00;99251.44;6588681;27;34393;-85
2023/07/26 06:55:57;;;;;;;5.43;1.85;;;;;;;19.26;100.00;99244.00;6586695;27;33342;-86
2023/07/26 06:59:01;;;;;;;4.12;2.08;;;;;;;19.24;100.00;99254.34;6606163;26;33572;-86
2023/07/26 07:02:05;;;;;;;6.03;2.08;;;;;;;19.15;100.00;99269.56;6568823;27;34347;-86
2023/07/26 07:05:08;;;;;;;5.53;2.70;;;;;;;18.93;100.00;99279.75;6606150;27;33530;-85
2023/07/26 07:08:11;;;;;;;2.22;1.55;;;;;;;18.68;100.00;99291.22;6605918;27;33560;-85
2023/07/26 07:11:14;;;;;;;5.85;1.50;;;;;;;18.54;100.00;99288.06;6568196;27;34040;-86
2023/07/26 07:14:16;;;;;;;1.50;1.35;;;;;;;18.38;100.00;99292.53;6586864;27;33675;-85
2023/07/26 07:17:19;;;;;;;7.68;2.10;;;;;;;18.43;100.00;99295.31;6585589;27;34376;-85
2023/07/26 07:20:22;;;;;;;2.65;1.87;;;;;;;18.54;100.00;99305.25;6585481;27;33085;-86
2023/07/26 07:23:25;;;;;;;2.25;1.65;;;;;;;18.48;100.00;99300.00;6568269;27;33598;-85
2023/07/26 07:26:28;;;;;;;3.33;2.15;;;;;;;18.13;100.00;99314.84;6586389;27;33510;-85
2023/07/26 07:29:34;;;;;;;8.20;2.12;;;;;;;17.87;100.00;99313.69;6568294;27;33285;-89
2023/07/26 07:32:37;;;;;;;5.37;2.35;;;;;;;17.66;100.00;99321.53;6551279;27;34367;-89
2023/07/26 07:35:41;;;;;;;15.32;2.97;;;;;;;17.60;100.00;99333.44;6593187;27;34046;-87
2023/07/26 07:38:47;;;;;;;2.05;1.70;;;;;;;17.59;100.00;99328.25;6587297;27;34080;-85
2023/07/26 07:41:50;;;;;;;4.72;1.80;;;;;;;17.56;100.00;99326.03;6608103;27;33658;-85
2023/07/26 07:44:52;;;;;;;8.38;2.50;;;;;;;17.66;100.00;99328.88;6573911;27;33591;-86
2023/07/26 07:47:55;;;;;;;2.25;1.37;;;;;;;17.55;100.00;99343.41;6568274;27;33398;-85
2023/07/26 07:50:58;;;;;;;2.00;1.40;;;;;;;17.37;100.00;99341.78;6568425;27;34667;-85
2023/07/26 07:54:01;;;;;;;2.37;1.50;;;;;;;17.31;100.00;99354.47;6585572;27;34385;-85
2023/07/26 07:57:04;;;;;;;4.10;2.15;;;;;;;17.25;100.00;99352.75;6567473;27;33502;-86
2023/07/26 08:00:10;;;;;;;13.15;2.90;;;;;;;17.23;100.00;99358.44;6567440;27;33626;-86
2023/07/26 08:03:13;;;;;;;2.97;1.70;;;;;;;17.16;100.00;99370.53;6587098;27;33597;-86
2023/07/26 08:06:17;;;;;;;4.97;2.00;;;;;;;16.92;100.00;99384.25;6568641;27;33154;-86
2023/07/26 08:09:19;;;;;;;1.75;1.60;;;;;;;16.77;100.00;99379.38;6585391;27;33546;-85
2023/07/26 08:12:22;;;;;;;3.05;1.70;;;;;;;16.69;100.00;99373.47;6567431;27;33078;-86
2023/07/26 08:15:27;;;;;;;1.75;1.30;;;;;;;16.57;100.00;99376.22;6548811;27;34036;-87
2023/07/26 08:18:30;;;;;;;3.55;1.60;;;;;;;16.42;100.00;99387.62;6586802;27;34393;-89
2023/07/26 08:21:32;;;;;;;2.12;1.90;;;;;;;16.41;100.00;99391.41;6608126;27;34448;-86
2023/07/26 08:24:37;;;;;;;4.10;1.60;;;;;;;16.42;100.00;99389.50;6571037;27;34651;-87
2023/07/26 08:27:40;;;;;;;5.53;1.50;;;;;;;16.49;100.00;99382.84;6586669;27;33317;-88
2023/07/26 08:30:43;;;;;;;3.55;2.03;;;;;;;16.43;100.00;99388.44;6568481;27;33681;-87
2023/07/26 08:33:46;;;;;;;5.18;2.08;;;;;;;16.45;100.00;99383.59;6568112;27;33694;-86
2023/07/26 08:36:50;;;;;;;1.77;1.67;;;;;;;16.48;100.00;99372.25;6586533;27;33599;-85
2023/07/26 08:39:52;;;;;;;3.78;2.05;;;;;;;16.57;100.00;99380.84;6590769;27;33511;-85
2023/07/26 08:42:58;;;;;;;5.20;2.70;;;;;;;16.47;100.00;99395.06;6606455;27;33292;-87
2023/07/26 08:46:02;;;;;;;18.37;2.80;;;;;;;16.61;100.00;99392.88;6607966;27;33145;-86
2023/07/26 08:49:06;;;;;;;11.57;2.72;;;;;;;16.77;100.00;99395.69;6589230;27;33475;-87
2023/07/26 08:52:09;;;;;;;11.63;3.28;;;;;;;17.00;100.00;99396.66;6606542;27;33748;-86
2023/07/26 08:55:12;;;;;;;8.70;2.35;;;;;;;17.20;100.00;99407.91;6588165;27;33624;-87
2023/07/26 08:58:15;;;;;;;2.10;1.90;;;;;;;17.37;100.00;99416.06;6587398;27;34317;-86
2023/07/26 09:01:19;;;;;;;2.10;1.90;;;;;;;17.47;100.00;99426.31;6587348;26;33543;-86
2023/07/26 09:04:22;;;;;;;5.30;1.83;;;;;;;17.57;100.00;99423.75;6568795;27;34703;-84
2023/07/26 09:07:25;;;;;;;10.32;2.62;;;;;;;17.61;100.00;99437.72;6606685;27;34406;-85
2023/07/26 09:10:30;;;;;;;3.55;1.52;;;;;;;17.67;100.00;99442.16;6586952;27;33802;-85
2023/07/26 09:13:33;;;;;;;1.75;1.65;;;;;;;17.69;100.00;99448.97;6606913;27;33675;-84
2023/07/26 09:16:36;;;;;;;3.83;1.75;;;;;;;17.71;100.00;99442.47;6568524;27;33530;-87
2023/07/26 09:19:39;;;;;;;4.32;1.70;;;;;;;17.79;100.00;99453.81;6568735;27;33727;-86
2023/07/26 09:22:42;;;;;;;1.92;1.60;;;;;;;17.90;100.00;99457.50;6568843;27;34469;-84
2023/07/26 09:25:45;;;;;;;2.47;1.58;;;;;;;17.93;100.00;99459.75;6568886;27;33738;-84
2023/07/26 09:28:52;;;;;;;14.87;2.65;;;;;;;18.04;100.00;99458.81;6603768;26;33273;-83
2023/07/26 09:31:55;;;;;;;11.32;2.85;;;;;;;18.16;100.00;99458.72;6605034;27;34272;-84
2023/07/26 09:34:59;;;;;;;5.45;1.92;;;;;;;18.25;100.00;99442.78;6568197;27;33341;-84
2023/07/26 09:38:15;;;;;;;5.10;1.75;;;;;;;18.21;100.00;99449.81;6593081;27;34049;-87
2023/07/26 09:41:24;;;;;;;2.67;2.37;;;;;;;18.21;100.00;99447.09;6585803;27;33743;-86
2023/07/26 09:44:27;;;;;;;5.60;1.75;;;;;;;18.12;100.00;99450.22;6604627;27;33292;-83
2023/07/26 09:47:35;;;;;;;12.93;3.62;;;;;;;18.19;100.00;99433.69;6605280;27;33687;-85
2023/07/26 09:50:46;;;;;;;2.37;1.77;;;;;;;18.56;100.00;99431.19;6606052;27;34432;-84
2023/07/26 09:53:55;;;;;;;2.05;1.80;;;;;;;18.96;100.00;99430.06;6606031;27;33148;-84
2023/07/26 09:56:59;;;;;;;3.22;1.95;;;;;;;19.57;100.00;99429.00;6568909;27;34190;-85
2023/07/26 10:00:04;;;;;;;1.98;1.73;;;;;;;20.06;100.00;99413.28;6587055;27;33533;-83
2023/07/26 10:03:09;;;;;;;4.57;1.60;;;;;;;20.84;100.00;99429.81;6586771;26;33948;-84
2023/07/26 10:06:13;;;;;;;1.42;1.33;;;;;;;21.31;100.00;99429.94;6605613;27;33299;-84
2023/07/26 10:09:16;;;;;;;1.90;1.70;;;;;;;21.78;96.99;99429.69;6605335;27;33534;-83
2023/07/26 10:12:24;;;;;;;2.08;1.70;;;;;;;21.86;96.96;99444.78;6585605;27;34273;-83
2023/07/26 10:15:30;;;;;;;2.65;1.70;;;;;;;21.80;96.87;99446.69;6585902;27;34385;-82
2023/07/26 10:18:34;;;;;;;1.80;1.52;;;;;;;21.82;95.85;99455.47;6585530;27;33758;-83
2023/07/26 10:21:41;;;;;;;1.87;1.60;;;;;;;21.86;96.50;99448.34;6606058;27;33267;-83
2023/07/26 10:24:45;;;;;;;1.15;1.15;;;;;;;21.26;96.32;99456.22;6605822;27;33788;-83
2023/07/26 10:27:49;;;;;;;2.17;1.52;;;;;;;21.06;96.67;99467.94;6609486;27;33182;-83
2023/07/26 10:30:53;;;;;;;1.90;1.80;;;;;;;20.97;100.00;99465.97;6569273;27;34507;-82
2023/07/26 10:33:57;;;;;;;3.03;2.12;;;;;;;20.82;98.96;99478.50;6623541;27;34805;-81
2023/07/26 10:37:13;;;;;;;1.70;1.45;;;;;;;20.55;100.00;99470.44;6615292;27;33673;-82
2023/07/26 10:40:37;;;;;;;1.75;1.65;;;;;;;20.42;100.00;99470.91;6616559;27;33607;-83
2023/07/26 10:43:40;;;;;;;1.62;1.45;;;;;;;20.29;100.00;99472.19;6616282;27;34081;-82
2023/07/26 10:46:52;;;;;;;8.05;2.62;;;;;;;20.31;100.00;99471.94;6614778;27;33506;-82
2023/07/26 10:50:05;;;;;;;7.70;2.33;;;;;;;20.32;99.73;99462.63;6616738;27;34991;-86
2023/07/26 10:53:26;;;;;;;3.42;1.70;;;;;;;20.44;100.00;99468.72;6613784;27;34685;-83
2023/07/26 10:56:33;;;;;;;2.42;1.67;;;;;;;20.48;99.91;99469.03;6616615;27;33793;-83
2023/07/26 10:59:53;;;;;;;4.47;2.00;;;;;;;20.39;100.00;99475.00;6586929;27;33946;-83
2023/07/26 11:03:01;;;;;;;21.95;4.68;;;;;;;20.75;97.59;99474.38;6605191;27;33650;-83
2023/07/26 11:06:05;;;;;;;2.35;2.00;;;;;;;20.85;96.77;99468.94;6605205;26;33705;-83
2023/07/26 11:09:18;;;;;;;4.47;2.30;;;;;;;20.70;96.21;99469.69;6605429;27;33746;-83
2023/07/26 11:12:23;;;;;;;14.75;2.87;;;;;;;20.70;95.89;99471.62;6604865;27;34326;-83
2023/07/26 11:15:30;;;;;;;2.00;1.87;;;;;;;20.71;93.82;99475.97;6585187;27;34350;-83
2023/07/26 11:18:53;;;;;;;8.90;2.45;;;;;;;20.31;95.62;99470.03;6588493;27;33620;-83
2023/07/26 11:22:05;;;;;;;3.17;1.80;;;;;;;20.17;97.96;99479.75;6587338;27;33347;-83
2023/07/26 11:25:11;;;;;;;1.60;1.50;;;;;;;20.47;97.01;99487.31;6605041;27;33807;-82
2023/07/26 11:28:15;;;;;;;1.73;1.62;;;;;;;22.60;85.81;99493.47;6605134;27;33888;-82
2023/07/26 11:31:19;;;;;;;2.62;1.67;;;;;;;23.51;82.64;99482.34;6568132;27;33763;-82
2023/07/26 11:34:22;;;;;;;1.62;1.48;;;;;;;24.60;75.51;99494.88;6585489;27;34337;-83
2023/07/26 11:37:25;;;;;;;2.58;1.42;;;;;;;25.17;71.53;99486.81;6605936;27;34603;-84
2023/07/26 11:40:28;;;;;;;2.78;1.70;;;;;;;25.45;71.34;99487.78;6605009;27;33184;-84
2023/07/26 11:43:32;;;;;;;3.70;1.60;;;;;;;25.94;68.22;99470.75;6607370;27;33309;-83
2023/07/26 11:46:35;;;;;;;4.53;1.45;;;;;;;25.70;70.07;99481.88;6585967;27;33708;-87
2023/07/26 11:49:38;;;;;;;2.40;1.20;;;;;;;24.11;72.88;99477.50;6606063;27;33688;-87
2023/07/26 11:52:41;;;;;;;11.90;2.45;;;;;;;23.39;73.71;99479.94;6586969;27;34180;-88
2023/07/26 11:55:50;;;;;;;7.30;1.87;;;;;;;23.36;72.82;99472.28;6603301;27;33776;-86
2023/07/26 11:58:53;;;;;;;4.22;1.73;;;;;;;23.34;74.24;99481.91;6605049;27;34377;-83
2023/07/26 12:01:56;;;;;;;7.50;1.75;;;;;;;24.87;70.03;99469.53;6604796;27;33550;-83
2023/07/26 12:05:20;;;;;;;5.78;2.00;;;;;;;26.84;61.46;99478.75;6585201;27;33961;-83
2023/07/26 12:08:27;;;;;;;1.35;1.17;;;;;;;26.89;58.91;99485.00;6602692;27;34497;-82
2023/07/26 12:11:30;;;;;;;3.20;1.70;;;;;;;25.77;61.58;99481.50;6603935;27;34133;-82
2023/07/26 12:14:33;;;;;;;9.98;2.92;;;;;;;24.88;66.08;99479.44;6587628;27;33481;-83
2023/07/26 12:18:03;;;;;;;10.90;2.60;;;;;;;24.11;67.41;99488.50;6585077;27;33596;-82
2023/07/26 12:21:08;;;;;;;2.12;1.62;;;;;;;24.26;68.56;99498.53;6605407;27;33283;-83
2023/07/26 12:24:17;;;;;;;24.75;4.60;;;;;;;24.75;65.04;99515.94;6605862;27;33398;-83
2023/07/26 12:27:20;;;;;;;10.63;2.47;;;;;;;24.18;67.13;99499.16;6585459;27;33695;-83
2023/07/26 12:30:25;;;;;;;7.25;2.30;;;;;;;23.30;69.67;99503.63;6605100;27;33667;-83
2023/07/26 12:33:29;;;;;;;10.05;3.03;;;;;;;23.26;74.00;99488.84;6604974;27;32945;-83
2023/07/26 12:36:41;;;;;;;10.30;2.05;;;;;;;24.77;66.69;99500.75;6566097;27;33673;-83
2023/07/26 12:39:48;;;;;;;6.32;1.70;;;;;;;27.76;56.50;99501.62;6585394;27;33560;-83
2023/07/26 12:42:51;;;;;;;7.00;1.40;;;;;;;29.50;49.13;99492.13;6569020;27;33352;-83
2023/07/26 12:45:55;;;;;;;5.37;1.20;;;;;;;30.65;45.74;99489.66;6586136;27;33669;-84
2023/07/26 12:48:58;;;;;;;5.20;1.23;;;;;;;31.26;42.41;99494.09;6585866;27;34369;-85
2023/07/26 12:52:01;;;;;;;4.62;1.50;;;;;;;31.21;42.09;99500.69;6605809;27;34456;-85
2023/07/26 12:55:05;;;;;;;5.43;1.02;;;;;;;31.80;40.95;99497.78;6586251;27;33197;-85
2023/07/26 12:58:08;;;;;;;11.52;2.00;;;;;;;31.49;41.92;99492.63;6584274;27;33831;-85
2023/07/26 13:01:11;;;;;;;12.68;3.15;;;;;;;32.07;41.12;99493.62;6604329;27;34238;-84
2023/07/26 13:04:15;;;;;;;2.47;0.98;;;;;;;32.44;39.21;99492.88;6568012;27;33374;-83
2023/07/26 13:07:18;;;;;;;4.32;0.93;;;;;;;29.83;43.72;99489.69;6604754;26;33052;-87
2023/07/26 13:10:23;;;;;;;1.70;0.80;;;;;;;26.13;54.76;99498.28;6585442;27;34377;-86
2023/07/26 13:13:26;;;;;;;2.62;1.40;;;;;;;26.40;55.43;99504.97;6604312;27;33697;-87
2023/07/26 13:16:31;;;;;;;1.08;0.68;;;;;;;25.29;59.12;99500.94;6585414;27;33521;-83
2023/07/26 13:19:35;;;;;;;1.95;0.40;;;;;;;24.60;62.04;99508.66;6568731;27;33610;-82
2023/07/26 13:22:38;;;;;;;0.40;0.40;;;;;;;24.96;61.84;99503.56;6585679;27;34105;-81
2023/07/26 13:25:41;;;;;;;0.32;0.30;;;;;;;25.39;61.46;99506.34;6605597;27;34511;-81
2023/07/26 13:28:44;;;;;;;0.28;0.28;;;;;;;25.24;60.12;99504.63;6585524;27;33581;-83
2023/07/26 13:31:47;;;;;;;1.92;0.35;;;;;;;26.43;56.66;99519.00;6568440;27;34287;-83
2023/07/26 13:34:50;;;;;;;1.85;0.32;;;;;;;26.55;53.25;99514.94;6567291;27;33427;-85
2023/07/26 13:37:53;;;;;;;1.70;0.37;;;;;;;24.94;58.78;99505.78;6566329;27;33696;-86
2023/07/26 13:40:55;;;;;;;2.55;0.37;;;;;;;24.85;60.62;99513.06;6585677;27;33668;-86
2023/07/26 13:43:58;;;;;;;0.40;0.40;;;;;;;23.99;63.55;99519.13;6587991;27;35015;-84
2023/07/26 13:47:01;;;;;;;1.33;0.47;;;;;;;23.15;66.89;99529.25;6567768;27;33277;-84
2023/07/26 13:50:05;;;;;;;0.50;0.50;;;;;;;22.72;69.04;99528.81;6567500;27;33252;-84
2023/07/26 13:53:07;;;;;;;0.93;0.40;;;;;;;22.42;70.84;99524.22;6586439;27;33744;-84
2023/07/26 13:56:10;;;;;;;1.15;0.37;;;;;;;22.31;72.49;99526.16;6567691;27;33639;-84
2023/07/26 13:59:13;;;;;;;0.30;0.30;;;;;;;23.45;67.46;99510.94;6585724;27;33555;-84
2023/07/26 14:02:18;;;;;;;4.68;0.60;;;;;;;23.64;62.88;99516.62;6567445;27;34257;-86
2023/07/26 14:05:21;;;;;;;2.40;0.50;;;;;;;23.43;64.31;99510.41;6586860;27;34666;-85
2023/07/26 14:08:24;;;;;;;0.30;0.20;;;;;;;22.59;65.13;99518.44;6585435;27;33139;-86
2023/07/26 14:11:27;;;;;;;3.10;0.45;;;;;;;22.69;65.94;99512.91;6568022;27;33382;-85
2023/07/26 14:14:30;;;;;;;0.98;0.10;;;;;;;22.89;62.38;99512.03;6605412;27;33917;-85
2023/07/26 14:17:34;;;;;;;0.47;0.20;;;;;;;23.59;61.05;99511.97;6567559;27;33263;-85
2023/07/26 14:20:36;;;;;;;2.42;0.50;;;;;;;24.01;58.19;99507.00;6605452;27;33638;-85
2023/07/26 14:23:39;;;;;;;1.08;0.20;;;;;;;23.29;60.27;99518.47;6566958;27;34396;-85
2023/07/26 14:26:42;;;;;;;2.35;0.73;;;;;;;22.96;60.23;99523.56;6567613;27;33194;-85
2023/07/26 14:29:45;;;;;;;0.55;0.30;;;;;;;22.67;60.91;99522.53;6567405;27;34631;-85
2023/07/26 14:32:48;;;;;;;1.55;0.37;;;;;;;22.83;62.88;99527.69;6603876;27;35263;-85
2023/07/26 14:35:51;;;;;;;0.20;0.20;;;;;;;22.57;59.40;99526.13;6585251;27;33602;-85
2023/07/26 14:38:53;;;;;;;0.20;0.20;;;;;;;22.54;59.19;99523.94;6603943;27;33663;-85
2023/07/26 14:41:56;;;;;;;1.75;0.30;;;;;;;22.40;57.86;99523.69;6603530;27;33526;-85
2023/07/26 14:44:59;;;;;;;0.85;0.57;;;;;;;22.64;58.84;99534.91;6568027;27;34410;-85
2023/07/26 14:48:02;;;;;;;0.65;0.30;;;;;;;22.48;58.00;99531.34;6604776;27;34287;-85
2023/07/26 14:51:05;;;;;;;1.50;0.40;;;;;;;22.08;58.40;99540.41;6604514;27;33402;-85
2023/07/26 14:54:08;;;;;;;0.60;0.37;;;;;;;22.06;58.70;99553.59;6605261;27;33371;-86
2023/07/26 14:57:10;;;;;;;0.98;0.45;;;;;;;22.15;60.62;99558.22;6587750;27;33663;-87
2023/07/26 15:00:17;;;;;;;2.17;0.52;;;;;;;22.14;59.78;99556.59;6571958;27;34112;-86
2023/07/26 15:03:20;;;;;;;0.35;0.35;;;;;;;21.92;60.04;99550.56;6606207;27;33921;-86
2023/07/26 15:06:23;;;;;;;0.30;0.30;;;;;;;21.94;62.87;99560.16;6604652;27;33892;-87
2023/07/26 15:09:26;;;;;;;0.55;0.40;;;;;;;21.85;61.78;99569.16;6605918;26;33674;-86
2023/07/26 15:12:29;;;;;;;1.25;0.40;;;;;;;21.93;62.05;99574.94;6568904;27;34402;-86
2023/07/26 15:15:32;;;;;;;1.98;0.40;;;;;;;21.82;62.44;99581.50;6607386;27;33738;-86
2023/07/26 15:18:35;;;;;;;0.30;0.30;;;;;;;21.83;61.21;99585.91;6604566;27;34378;-86
2023/07/26 15:21:37;;;;;;;0.20;0.20;;;;;;;21.47;62.45;99585.81;6605004;27;34691;-86
2023/07/26 15:24:40;;;;;;;0.37;0.30;;;;;;;21.33;64.33;99589.28;6606653;27;34238;-86
2023/07/26 15:27:43;;;;;;;0.95;0.20;;;;;;;21.18;64.20;99593.59;6610829;27;35402;-87
2023/07/26 15:30:46;;;;;;;0.30;0.22;;;;;;;21.28;66.47;99590.09;6612636;27;34414;-86
2023/07/26 15:33:49;;;;;;;0.60;0.32;;;;;;;21.11;64.43;99609.44;6588824;27;34153;-89
2023/07/26 15:36:52;;;;;;;0.40;0.35;;;;;;;21.01;66.01;99602.00;6585817;27;33443;-91
2023/07/26 15:39:55;;;;;;;0.45;0.45;;;;;;;21.14;64.58;99614.38;6586861;27;34386;-90
2023/07/26 15:42:58;;;;;;;2.22;0.40;;;;;;;21.19;64.83;99616.31;6588295;27;34380;-86
2023/07/26 15:46:02;;;;;;;0.28;0.28;;;;;;;21.39;64.78;99615.62;6599916;27;33279;-86
2023/07/26 15:49:25;;;;;;;2.00;0.37;;;;;;;21.21;64.49;99616.91;6610198;27;33489;-86
2023/07/26 15:52:28;;;;;;;2.30;0.40;;;;;;;21.00;64.44;99632.38;6606213;27;33844;-86
2023/07/26 15:55:31;;;;;;;0.35;0.30;;;;;;;20.93;65.05;99629.88;6604701;27;34386;-86
